sensor_id;sensor_type;location;lat;lon;timestamp;pressure;altitude;pressure_sealevel;temperature;humidity
70133;BME280;57495;49.922;7.966;2022-07-18T00:00:46;100721.91;;;18.41;47.11
70133;BME280;57495;49.922;7.966;2022-07-18T00:02:47;100714.44;;;18.43;46.61
70133;BME280;57495;49.922;7.966;2022-07-18T00:04:48;100729.56;;;18.68;45.99
70133;BME280;57495;49.922;7.966;2022-07-18T00:06:50;100721.66;;;18.90;46.80
70133;BME280;57495;49.922;7.966;2022-07-18T00:08:53;100724.66;;;18.95;46.57
70133;BME280;57495;49.922;7.966;2022-07-18T00:10:55;100731.53;;;19.06;46.30
70133;BME280;57495;49.922;7.966;2022-07-18T00:12:56;100730.56;;;18.99;46.47
70133;BME280;57495;49.922;7.966;2022-07-18T00:14:58;100727.38;;;18.95;46.44
70133;BME280;57495;49.922;7.966;2022-07-18T00:17:00;100734.56;;;18.88;46.36
70133;BME280;57495;49.922;7.966;2022-07-18T00:19:02;100725.69;;;18.94;45.60
70133;BME280;57495;49.922;7.966;2022-07-18T00:21:04;100727.19;;;18.65;46.44
70133;BME280;57495;49.922;7.966;2022-07-18T00:23:05;100734.53;;;18.25;46.94
70133;BME280;57495;49.922;7.966;2022-07-18T00:25:08;100726.66;;;18.39;46.79
70133;BME280;57495;49.922;7.966;2022-07-18T00:27:10;100735.03;;;18.60;46.59
70133;BME280;57495;49.922;7.966;2022-07-18T00:29:11;100728.72;;;18.68;46.50
70133;BME280;57495;49.922;7.966;2022-07-18T00:31:13;100730.53;;;18.76;46.99
70133;BME280;57495;49.922;7.966;2022-07-18T00:33:14;100724.25;;;18.83;46.75
70133;BME280;57495;49.922;7.966;2022-07-18T00:35:16;100719.97;;;18.89;45.83
70133;BME280;57495;49.922;7.966;2022-07-18T00:37:17;100724.75;;;18.79;46.50
70133;BME280;57495;49.922;7.966;2022-07-18T00:39:19;100724.13;;;18.68;46.26
70133;BME280;57495;49.922;7.966;2022-07-18T00:41:21;100724.13;;;18.68;46.33
70133;BME280;57495;49.922;7.966;2022-07-18T00:43:23;100721.56;;;18.75;47.02
70133;BME280;57495;49.922;7.966;2022-07-18T00:45:25;100723.47;;;18.66;47.21
70133;BME280;57495;49.922;7.966;2022-07-18T00:47:26;100727.50;;;18.70;46.80
70133;BME280;57495;49.922;7.966;2022-07-18T00:49:28;100716.66;;;18.70;46.16
70133;BME280;57495;49.922;7.966;2022-07-18T00:51:30;100712.66;;;18.58;46.69
70133;BME280;57495;49.922;7.966;2022-07-18T00:53:34;100717.25;;;18.58;46.44
70133;BME280;57495;49.922;7.966;2022-07-18T00:55:37;100715.69;;;18.63;47.03
70133;BME280;57495;49.922;7.966;2022-07-18T00:57:40;100719.84;;;18.51;47.42
70133;BME280;57495;49.922;7.966;2022-07-18T00:59:43;100721.03;;;18.01;47.75
70133;BME280;57495;49.922;7.966;2022-07-18T01:02:02;100716.94;;;18.21;47.09
70133;BME280;57495;49.922;7.966;2022-07-18T01:04:04;100722.66;;;18.26;47.66
70133;BME280;57495;49.922;7.966;2022-07-18T01:06:05;100719.50;;;18.14;47.87
70133;BME280;57495;49.922;7.966;2022-07-18T01:08:07;100718.00;;;18.12;48.10
70133;BME280;57495;49.922;7.966;2022-07-18T01:10:08;100724.75;;;18.16;47.77
70133;BME280;57495;49.922;7.966;2022-07-18T01:12:10;100724.75;;;18.16;47.79
70133;BME280;57495;49.922;7.966;2022-07-18T01:14:13;100725.22;;;18.20;48.06
70133;BME280;57495;49.922;7.966;2022-07-18T01:16:15;100722.03;;;18.16;47.90
70133;BME280;57495;49.922;7.966;2022-07-18T01:18:17;100725.13;;;18.05;49.11
70133;BME280;57495;49.922;7.966;2022-07-18T01:20:19;100724.44;;;18.03;48.49
70133;BME280;57495;49.922;7.966;2022-07-18T01:22:22;100720.72;;;18.04;47.92
70133;BME280;57495;49.922;7.966;2022-07-18T01:24:23;100722.09;;;18.00;48.00
70133;BME280;57495;49.922;7.966;2022-07-18T01:26:25;100721.75;;;18.03;47.86
70133;BME280;57495;49.922;7.966;2022-07-18T01:28:27;100720.00;;;18.10;47.56
70133;BME280;57495;49.922;7.966;2022-07-18T01:30:28;100718.66;;;18.06;48.34
70133;BME280;57495;49.922;7.966;2022-07-18T01:32:30;100718.00;;;18.04;47.84
70133;BME280;57495;49.922;7.966;2022-07-18T01:34:31;100713.97;;;18.00;48.17
70133;BME280;57495;49.922;7.966;2022-07-18T01:36:33;100716.69;;;17.91;48.24
70133;BME280;57495;49.922;7.966;2022-07-18T01:38:36;100716.38;;;17.86;48.80
70133;BME280;57495;49.922;7.966;2022-07-18T01:40:38;100712.78;;;17.94;48.85
70133;BME280;57495;49.922;7.966;2022-07-18T01:42:40;100717.38;;;17.93;49.38
70133;BME280;57495;49.922;7.966;2022-07-18T01:44:42;100713.66;;;17.86;49.22
70133;BME280;57495;49.922;7.966;2022-07-18T01:46:43;100717.03;;;17.88;48.35
70133;BME280;57495;49.922;7.966;2022-07-18T01:48:45;100714.00;;;17.67;49.20
70133;BME280;57495;49.922;7.966;2022-07-18T01:50:46;100716.22;;;17.71;49.84
70133;BME280;57495;49.922;7.966;2022-07-18T01:52:48;100720.44;;;17.57;50.75
70133;BME280;57495;49.922;7.966;2022-07-18T01:54:51;100711.66;;;17.55;49.46
70133;BME280;57495;49.922;7.966;2022-07-18T01:56:53;100711.66;;;17.55;48.97
70133;BME280;57495;49.922;7.966;2022-07-18T01:58:54;100714.69;;;17.61;48.69
70133;BME280;57495;49.922;7.966;2022-07-18T02:00:56;100719.41;;;17.67;48.62
70133;BME280;57495;49.922;7.966;2022-07-18T02:02:58;100715.06;;;17.41;49.96
70133;BME280;57495;49.922;7.966;2022-07-18T02:04:59;100714.38;;;17.47;49.56
70133;BME280;57495;49.922;7.966;2022-07-18T02:07:01;100707.28;;;17.46;48.95
70133;BME280;57495;49.922;7.966;2022-07-18T02:09:03;100707.59;;;17.43;48.54
70133;BME280;57495;49.922;7.966;2022-07-18T02:11:06;100714.38;;;17.39;48.76
70133;BME280;57495;49.922;7.966;2022-07-18T02:13:08;100721.50;;;16.99;49.50
70133;BME280;57495;49.922;7.966;2022-07-18T02:15:11;100710.59;;;16.74;50.28
70133;BME280;57495;49.922;7.966;2022-07-18T02:17:13;100710.50;;;16.92;49.85
70133;BME280;57495;49.922;7.966;2022-07-18T02:19:15;100712.03;;;17.19;49.99
70133;BME280;57495;49.922;7.966;2022-07-18T02:21:17;100707.63;;;17.27;49.56
70133;BME280;57495;49.922;7.966;2022-07-18T02:23:18;100706.59;;;17.36;49.33
70133;BME280;57495;49.922;7.966;2022-07-18T02:25:19;100706.97;;;17.33;48.99
70133;BME280;57495;49.922;7.966;2022-07-18T02:27:22;100696.81;;;17.27;49.80
70133;BME280;57495;49.922;7.966;2022-07-18T02:29:24;100697.50;;;17.29;49.82
70133;BME280;57495;49.922;7.966;2022-07-18T02:31:25;100694.09;;;17.27;49.88
70133;BME280;57495;49.922;7.966;2022-07-18T02:33:27;100701.56;;;17.33;49.91
70133;BME280;57495;49.922;7.966;2022-07-18T02:35:28;100697.50;;;17.29;50.38
70133;BME280;57495;49.922;7.966;2022-07-18T02:37:30;100700.72;;;17.32;50.47
70133;BME280;57495;49.922;7.966;2022-07-18T02:39:31;100700.72;;;17.16;51.39
70133;BME280;57495;49.922;7.966;2022-07-18T02:41:33;100701.22;;;17.03;50.97
70133;BME280;57495;49.922;7.966;2022-07-18T02:43:36;100700.03;;;17.06;51.41
70133;BME280;57495;49.922;7.966;2022-07-18T02:45:38;100702.25;;;17.10;51.44
70133;BME280;57495;49.922;7.966;2022-07-18T02:47:40;100699.00;;;17.15;50.76
70133;BME280;57495;49.922;7.966;2022-07-18T02:49:41;100705.63;;;17.12;51.02
70133;BME280;57495;49.922;7.966;2022-07-18T02:51:43;100704.25;;;17.16;51.11
70133;BME280;57495;49.922;7.966;2022-07-18T02:53:44;100707.97;;;17.07;51.88
70133;BME280;57495;49.922;7.966;2022-07-18T02:55:46;100709.66;;;16.92;52.46
70133;BME280;57495;49.922;7.966;2022-07-18T02:57:48;100711.00;;;16.96;51.92
70133;BME280;57495;49.922;7.966;2022-07-18T02:59:51;100716.34;;;16.79;52.06
70133;BME280;57495;49.922;7.966;2022-07-18T03:01:52;100715.31;;;16.72;52.04
70133;BME280;57495;49.922;7.966;2022-07-18T03:03:54;100721.91;;;16.78;51.62
70133;BME280;57495;49.922;7.966;2022-07-18T03:05:57;100716.34;;;16.71;51.84
70133;BME280;57495;49.922;7.966;2022-07-18T03:07:58;100717.16;;;16.63;52.15
70133;BME280;57495;49.922;7.966;2022-07-18T03:10:00;100715.13;;;16.66;51.80
70133;BME280;57495;49.922;7.966;2022-07-18T03:12:02;100715.31;;;16.72;51.53
70133;BME280;57495;49.922;7.966;2022-07-18T03:14:03;100707.53;;;16.61;51.58
70133;BME280;57495;49.922;7.966;2022-07-18T03:16:06;100708.72;;;16.67;51.45
70133;BME280;57495;49.922;7.966;2022-07-18T03:18:08;100710.59;;;16.74;51.55
70133;BME280;57495;49.922;7.966;2022-07-18T03:20:10;100715.66;;;16.77;51.31
70133;BME280;57495;49.922;7.966;2022-07-18T03:22:12;100713.28;;;16.74;51.49
70133;BME280;57495;49.922;7.966;2022-07-18T03:24:13;100719.31;;;16.60;52.46
70133;BME280;57495;49.922;7.966;2022-07-18T03:26:15;100717.47;;;16.52;52.31
70133;BME280;57495;49.922;7.966;2022-07-18T03:28:16;100712.72;;;16.54;52.11
70133;BME280;57495;49.922;7.966;2022-07-18T03:30:18;100714.59;;;16.46;52.47
70133;BME280;57495;49.922;7.966;2022-07-18T03:32:21;100710.53;;;16.50;51.97
70133;BME280;57495;49.922;7.966;2022-07-18T03:34:22;100717.63;;;16.51;52.67
70133;BME280;57495;49.922;7.966;2022-07-18T03:36:23;100719.53;;;16.58;52.29
70133;BME280;57495;49.922;7.966;2022-07-18T03:38:25;100720.03;;;16.62;52.30
70133;BME280;57495;49.922;7.966;2022-07-18T03:40:26;100719.00;;;16.55;52.16
70133;BME280;57495;49.922;7.966;2022-07-18T03:42:28;100714.91;;;16.42;53.19
70133;BME280;57495;49.922;7.966;2022-07-18T03:44:29;100727.06;;;16.47;52.78
70133;BME280;57495;49.922;7.966;2022-07-18T03:46:31;100718.63;;;16.50;52.51
70133;BME280;57495;49.922;7.966;2022-07-18T03:48:35;100718.47;;;16.51;52.50
70133;BME280;57495;49.922;7.966;2022-07-18T03:50:37;100725.75;;;16.59;52.59
70133;BME280;57495;49.922;7.966;2022-07-18T03:52:38;100728.13;;;16.62;52.41
70133;BME280;57495;49.922;7.966;2022-07-18T03:54:39;100728.09;;;16.54;53.14
70133;BME280;57495;49.922;7.966;2022-07-18T03:56:41;100732.47;;;16.47;53.90
70133;BME280;57495;49.922;7.966;2022-07-18T03:58:43;100734.16;;;16.48;53.63
70133;BME280;57495;49.922;7.966;2022-07-18T04:00:44;100727.56;;;16.50;53.77
70133;BME280;57495;49.922;7.966;2022-07-18T04:02:47;100734.63;;;16.43;53.63
70133;BME280;57495;49.922;7.966;2022-07-18T04:04:50;100727.41;;;16.52;53.18
70133;BME280;57495;49.922;7.966;2022-07-18T04:06:51;100725.41;;;16.54;53.56
70133;BME280;57495;49.922;7.966;2022-07-18T04:08:53;100727.41;;;16.43;54.44
70133;BME280;57495;49.922;7.966;2022-07-18T04:10:54;100727.88;;;16.39;53.29
70133;BME280;57495;49.922;7.966;2022-07-18T04:12:56;100726.91;;;16.14;53.42
70133;BME280;57495;49.922;7.966;2022-07-18T04:14:58;100729.22;;;16.35;52.81
70133;BME280;57495;49.922;7.966;2022-07-18T04:16:59;100726.75;;;16.50;53.30
70133;BME280;57495;49.922;7.966;2022-07-18T04:19:01;100728.09;;;16.54;53.22
70133;BME280;57495;49.922;7.966;2022-07-18T04:21:04;100730.47;;;16.57;53.26
70133;BME280;57495;49.922;7.966;2022-07-18T04:23:06;100728.63;;;16.57;53.71
70133;BME280;57495;49.922;7.966;2022-07-18T04:25:08;100733.97;;;16.41;52.95
70133;BME280;57495;49.922;7.966;2022-07-18T04:27:09;100731.41;;;16.39;52.63
70133;BME280;57495;49.922;7.966;2022-07-18T04:29:11;100736.19;;;16.54;52.77
70133;BME280;57495;49.922;7.966;2022-07-18T04:31:12;100739.94;;;16.61;53.75
70133;BME280;57495;49.922;7.966;2022-07-18T04:33:13;100736.25;;;16.70;52.74
70133;BME280;57495;49.922;7.966;2022-07-18T04:35:15;100735.06;;;16.65;52.98
70133;BME280;57495;49.922;7.966;2022-07-18T04:37:18;100739.31;;;16.75;52.77
70133;BME280;57495;49.922;7.966;2022-07-18T04:39:19;100736.25;;;16.78;52.47
70133;BME280;57495;49.922;7.966;2022-07-18T04:41:21;100732.41;;;16.81;52.61
70133;BME280;57495;49.922;7.966;2022-07-18T04:43:24;100730.44;;;16.99;54.79
70133;BME280;57495;49.922;7.966;2022-07-18T04:45:26;100729.78;;;17.14;53.11
70133;BME280;57495;49.922;7.966;2022-07-18T04:47:28;100724.09;;;16.74;52.46
70133;BME280;57495;49.922;7.966;2022-07-18T04:49:30;100723.72;;;16.53;52.82
70133;BME280;57495;49.922;7.966;2022-07-18T04:51:31;100728.94;;;16.12;54.53
70133;BME280;57495;49.922;7.966;2022-07-18T04:53:34;100731.72;;;15.68;56.31
70133;BME280;57495;49.922;7.966;2022-07-18T04:55:35;100728.22;;;16.01;55.94
70133;BME280;57495;49.922;7.966;2022-07-18T04:57:37;100734.91;;;15.89;56.11
70133;BME280;57495;49.922;7.966;2022-07-18T04:59:39;100737.16;;;15.50;57.90
70133;BME280;57495;49.922;7.966;2022-07-18T05:01:40;100734.91;;;15.89;57.20
70133;BME280;57495;49.922;7.966;2022-07-18T05:03:41;100728.09;;;15.33;59.45
70133;BME280;57495;49.922;7.966;2022-07-18T05:05:43;100732.72;;;15.22;60.35
70133;BME280;57495;49.922;7.966;2022-07-18T05:07:45;100736.66;;;15.54;58.72
70133;BME280;57495;49.922;7.966;2022-07-18T05:09:49;100744.47;;;15.65;59.38
70133;BME280;57495;49.922;7.966;2022-07-18T05:11:50;100744.47;;;15.65;59.37
70133;BME280;57495;49.922;7.966;2022-07-18T05:13:51;100739.56;;;16.05;58.64
70133;BME280;57495;49.922;7.966;2022-07-18T05:15:53;100733.72;;;16.26;56.97
70133;BME280;57495;49.922;7.966;2022-07-18T05:17:54;100732.75;;;16.35;57.74
70133;BME280;57495;49.922;7.966;2022-07-18T05:19:56;100741.13;;;16.16;57.01
70133;BME280;57495;49.922;7.966;2022-07-18T05:21:57;100735.38;;;16.19;57.09
70133;BME280;57495;49.922;7.966;2022-07-18T05:23:59;100734.03;;;16.23;58.15
70133;BME280;57495;49.922;7.966;2022-07-18T05:26:01;100731.13;;;16.51;56.97
70133;BME280;57495;49.922;7.966;2022-07-18T05:28:03;100724.41;;;16.63;57.52
70133;BME280;57495;49.922;7.966;2022-07-18T05:30:07;100725.88;;;16.92;56.38
70133;BME280;57495;49.922;7.966;2022-07-18T05:32:09;100733.28;;;17.06;56.03
70133;BME280;57495;49.922;7.966;2022-07-18T05:34:12;100729.44;;;17.09;56.06
70133;BME280;57495;49.922;7.966;2022-07-18T05:36:13;100732.97;;;17.09;56.46
70133;BME280;57495;49.922;7.966;2022-07-18T05:38:15;100734.16;;;17.39;55.01
70133;BME280;57495;49.922;7.966;2022-07-18T05:40:17;100729.25;;;17.35;54.57
70133;BME280;57495;49.922;7.966;2022-07-18T05:42:20;100727.91;;;17.39;55.56
70133;BME280;57495;49.922;7.966;2022-07-18T05:44:21;100729.25;;;17.43;54.48
70133;BME280;57495;49.922;7.966;2022-07-18T05:46:23;100735.47;;;17.68;53.87
70133;BME280;57495;49.922;7.966;2022-07-18T05:48:24;100733.97;;;17.66;53.20
70133;BME280;57495;49.922;7.966;2022-07-18T05:50:26;100724.50;;;17.70;53.62
70133;BME280;57495;49.922;7.966;2022-07-18T05:52:27;100728.88;;;17.87;53.51
70133;BME280;57495;49.922;7.966;2022-07-18T05:54:28;100734.13;;;17.89;53.53
70133;BME280;57495;49.922;7.966;2022-07-18T05:56:30;100729.38;;;17.99;52.76
70133;BME280;57495;49.922;7.966;2022-07-18T05:58:33;100734.69;;;18.15;51.48
70133;BME280;57495;49.922;7.966;2022-07-18T06:00:34;100733.72;;;18.08;52.30
70133;BME280;57495;49.922;7.966;2022-07-18T06:02:36;100734.34;;;18.19;51.18
70133;BME280;57495;49.922;7.966;2022-07-18T06:04:37;100738.38;;;18.31;50.44
70133;BME280;57495;49.922;7.966;2022-07-18T06:06:39;100738.81;;;18.51;49.63
70133;BME280;57495;49.922;7.966;2022-07-18T06:08:41;100734.97;;;18.68;48.96
70133;BME280;57495;49.922;7.966;2022-07-18T06:10:43;100730.56;;;18.67;48.31
70133;BME280;57495;49.922;7.966;2022-07-18T06:12:44;100730.81;;;18.89;47.33
70133;BME280;57495;49.922;7.966;2022-07-18T06:14:47;100734.81;;;19.01;47.38
70133;BME280;57495;49.922;7.966;2022-07-18T06:16:49;100723.72;;;19.11;47.22
70133;BME280;57495;49.922;7.966;2022-07-18T06:18:50;100720.00;;;19.12;47.39
70133;BME280;57495;49.922;7.966;2022-07-18T06:20:52;100716.06;;;19.15;48.35
70133;BME280;57495;49.922;7.966;2022-07-18T06:22:53;100713.97;;;19.25;47.44
70133;BME280;57495;49.922;7.966;2022-07-18T06:24:55;100712.03;;;19.48;47.60
70133;BME280;57495;49.922;7.966;2022-07-18T06:26:56;100711.09;;;19.56;46.58
70133;BME280;57495;49.922;7.966;2022-07-18T06:28:57;100705.47;;;19.81;47.28
70133;BME280;57495;49.922;7.966;2022-07-18T06:31:00;100714.56;;;19.88;45.93
70133;BME280;57495;49.922;7.966;2022-07-18T06:33:02;100713.44;;;20.12;46.84
70133;BME280;57495;49.922;7.966;2022-07-18T06:35:07;100700.00;;;20.40;44.46
70133;BME280;57495;49.922;7.966;2022-07-18T06:37:09;100705.31;;;20.34;44.75
70133;BME280;57495;49.922;7.966;2022-07-18T06:39:10;100701.41;;;20.36;45.75
70133;BME280;57495;49.922;7.966;2022-07-18T06:41:11;100705.03;;;20.58;45.37
70133;BME280;57495;49.922;7.966;2022-07-18T06:43:13;100705.13;;;20.87;44.05
70133;BME280;57495;49.922;7.966;2022-07-18T06:45:19;100696.75;;;21.10;42.84
70133;BME280;57495;49.922;7.966;2022-07-18T06:47:22;100698.72;;;20.94;42.94
70133;BME280;57495;49.922;7.966;2022-07-18T06:49:23;100708.59;;;20.95;42.48
70133;BME280;57495;49.922;7.966;2022-07-18T06:51:25;100703.53;;;21.14;41.41
70133;BME280;57495;49.922;7.966;2022-07-18T06:53:27;100702.53;;;21.21;42.07
70133;BME280;57495;49.922;7.966;2022-07-18T06:55:28;100702.47;;;21.15;43.17
70133;BME280;57495;49.922;7.966;2022-07-18T06:57:30;100702.34;;;21.23;42.21
70133;BME280;57495;49.922;7.966;2022-07-18T06:59:31;100695.72;;;21.32;43.19
70133;BME280;57495;49.922;7.966;2022-07-18T07:01:32;100698.94;;;21.42;42.71
70133;BME280;57495;49.922;7.966;2022-07-18T07:03:35;100695.41;;;21.70;41.96
70133;BME280;57495;49.922;7.966;2022-07-18T07:05:37;100704.50;;;21.84;42.32
70133;BME280;57495;49.922;7.966;2022-07-18T07:07:38;100708.84;;;22.13;41.73
70133;BME280;57495;49.922;7.966;2022-07-18T07:09:40;100707.94;;;21.99;40.27
70133;BME280;57495;49.922;7.966;2022-07-18T07:11:41;100711.50;;;22.35;41.39
70133;BME280;57495;49.922;7.966;2022-07-18T07:13:42;100705.72;;;22.65;40.74
70133;BME280;57495;49.922;7.966;2022-07-18T07:15:44;100704.25;;;22.69;39.56
70133;BME280;57495;49.922;7.966;2022-07-18T07:17:45;100702.44;;;22.96;39.70
70133;BME280;57495;49.922;7.966;2022-07-18T07:19:48;100709.38;;;22.98;39.64
70133;BME280;57495;49.922;7.966;2022-07-18T07:21:50;100701.66;;;23.09;39.03
70133;BME280;57495;49.922;7.966;2022-07-18T07:23:51;100706.72;;;23.25;37.72
70133;BME280;57495;49.922;7.966;2022-07-18T07:25:53;100694.72;;;23.66;37.96
70133;BME280;57495;49.922;7.966;2022-07-18T07:27:54;100686.09;;;23.89;38.22
70133;BME280;57495;49.922;7.966;2022-07-18T07:29:56;100684.19;;;23.90;36.82
70133;BME280;57495;49.922;7.966;2022-07-18T07:31:57;100685.63;;;23.99;37.19
70133;BME280;57495;49.922;7.966;2022-07-18T07:33:59;100685.72;;;24.31;36.92
70133;BME280;57495;49.922;7.966;2022-07-18T07:36:02;100678.81;;;24.22;36.25
70133;BME280;57495;49.922;7.966;2022-07-18T07:38:04;100685.59;;;24.12;36.36
70133;BME280;57495;49.922;7.966;2022-07-18T07:40:06;100679.53;;;24.56;35.86
70133;BME280;57495;49.922;7.966;2022-07-18T07:42:08;100678.84;;;24.99;35.66
70133;BME280;57495;49.922;7.966;2022-07-18T07:44:10;100680.34;;;25.26;35.46
70133;BME280;57495;49.922;7.966;2022-07-18T07:46:11;100680.13;;;25.46;34.50
70133;BME280;57495;49.922;7.966;2022-07-18T07:48:13;100687.13;;;25.68;34.24
70133;BME280;57495;49.922;7.966;2022-07-18T07:50:14;100679.25;;;25.96;34.08
70133;BME280;57495;49.922;7.966;2022-07-18T07:52:17;100671.22;;;26.13;32.80
70133;BME280;57495;49.922;7.966;2022-07-18T07:54:19;100675.97;;;26.55;32.04
70133;BME280;57495;49.922;7.966;2022-07-18T07:56:21;100672.63;;;26.71;32.15
70133;BME280;57495;49.922;7.966;2022-07-18T07:58:22;100677.66;;;26.86;32.27
70133;BME280;57495;49.922;7.966;2022-07-18T08:00:23;100665.66;;;26.69;32.23
70133;BME280;57495;49.922;7.966;2022-07-18T08:02:25;100669.94;;;26.95;33.22
70133;BME280;57495;49.922;7.966;2022-07-18T08:04:26;100662.81;;;27.17;31.83
70133;BME280;57495;49.922;7.966;2022-07-18T08:06:28;100662.75;;;26.94;30.98
70133;BME280;57495;49.922;7.966;2022-07-18T08:08:30;100664.31;;;26.90;30.45
70133;BME280;57495;49.922;7.966;2022-07-18T08:10:32;100656.81;;;26.97;30.47
70133;BME280;57495;49.922;7.966;2022-07-18T08:12:33;100661.94;;;27.17;30.69
70133;BME280;57495;49.922;7.966;2022-07-18T08:14:35;100660.22;;;27.46;30.77
70133;BME280;57495;49.922;7.966;2022-07-18T08:16:40;100653.88;;;27.57;30.65
70133;BME280;57495;49.922;7.966;2022-07-18T08:18:41;100656.25;;;27.77;29.76
70133;BME280;57495;49.922;7.966;2022-07-18T08:20:43;100650.09;;;28.11;30.36
70133;BME280;57495;49.922;7.966;2022-07-18T08:22:58;100653.06;;;28.21;28.83
70133;BME280;57495;49.922;7.966;2022-07-18T08:25:01;100648.38;;;28.62;28.52
70133;BME280;57495;49.922;7.966;2022-07-18T08:27:03;100645.41;;;28.81;28.64
70133;BME280;57495;49.922;7.966;2022-07-18T08:29:04;100645.31;;;29.09;28.41
70133;BME280;57495;49.922;7.966;2022-07-18T08:31:06;100651.97;;;29.25;28.24
70133;BME280;57495;49.922;7.966;2022-07-18T08:33:08;100644.19;;;29.39;27.17
70133;BME280;57495;49.922;7.966;2022-07-18T08:35:09;100644.56;;;29.48;27.73
70133;BME280;57495;49.922;7.966;2022-07-18T08:37:11;100641.81;;;29.48;27.22
70133;BME280;57495;49.922;7.966;2022-07-18T08:39:12;100638.44;;;30.02;27.47
70133;BME280;57495;49.922;7.966;2022-07-18T08:41:16;100641.19;;;30.24;26.74
70133;BME280;57495;49.922;7.966;2022-07-18T08:43:18;100639.78;;;30.21;26.12
70133;BME280;57495;49.922;7.966;2022-07-18T08:45:21;100647.16;;;30.16;26.06
70133;BME280;57495;49.922;7.966;2022-07-18T08:47:23;100639.13;;;30.14;25.25
70133;BME280;57495;49.922;7.966;2022-07-18T08:49:25;100650.25;;;30.41;26.27
70133;BME280;57495;49.922;7.966;2022-07-18T08:51:27;100640.84;;;30.42;24.43
70133;BME280;57495;49.922;7.966;2022-07-18T08:53:29;100643.03;;;30.40;25.72
70133;BME280;57495;49.922;7.966;2022-07-18T08:55:32;100645.56;;;30.42;24.84
70133;BME280;57495;49.922;7.966;2022-07-18T08:57:35;100644.72;;;30.96;25.72
70133;BME280;57495;49.922;7.966;2022-07-18T08:59:36;100647.97;;;31.25;25.38
70133;BME280;57495;49.922;7.966;2022-07-18T09:01:39;100646.69;;;31.38;24.62
70133;BME280;57495;49.922;7.966;2022-07-18T09:03:41;100642.69;;;31.56;24.19
70133;BME280;57495;49.922;7.966;2022-07-18T09:05:42;100642.38;;;31.15;23.43
70133;BME280;57495;49.922;7.966;2022-07-18T09:07:44;100635.09;;;31.03;24.01
70133;BME280;57495;49.922;7.966;2022-07-18T09:09:52;100631.50;;;30.71;23.16
70133;BME280;57495;49.922;7.966;2022-07-18T09:11:55;100622.59;;;31.33;23.67
70133;BME280;57495;49.922;7.966;2022-07-18T09:13:59;100628.28;;;31.49;23.17
70133;BME280;57495;49.922;7.966;2022-07-18T09:16:02;100619.06;;;31.86;24.11
70133;BME280;57495;49.922;7.966;2022-07-18T09:18:03;100615.81;;;32.09;23.11
70133;BME280;57495;49.922;7.966;2022-07-18T09:20:07;100615.88;;;32.20;23.64
70133;BME280;57495;49.922;7.966;2022-07-18T09:22:17;100619.91;;;31.44;23.41
70133;BME280;57495;49.922;7.966;2022-07-18T09:24:18;100614.00;;;31.67;24.12
70133;BME280;57495;49.922;7.966;2022-07-18T09:26:36;100612.56;;;32.17;23.53
70133;BME280;57495;49.922;7.966;2022-07-18T09:28:46;100614.31;;;32.65;22.80
70133;BME280;57495;49.922;7.966;2022-07-18T09:30:49;100606.50;;;32.46;22.70
70133;BME280;57495;49.922;7.966;2022-07-18T09:32:53;100612.72;;;31.95;22.19
70133;BME280;57495;49.922;7.966;2022-07-18T09:34:54;100618.75;;;30.70;23.23
70133;BME280;57495;49.922;7.966;2022-07-18T09:36:56;100622.81;;;30.89;23.36
70133;BME280;57495;49.922;7.966;2022-07-18T09:38:58;100611.88;;;32.00;23.18
70133;BME280;57495;49.922;7.966;2022-07-18T09:40:59;100620.03;;;32.17;21.95
70133;BME280;57495;49.922;7.966;2022-07-18T09:43:03;100610.25;;;31.99;22.23
70133;BME280;57495;49.922;7.966;2022-07-18T09:45:05;100610.44;;;31.34;22.27
70133;BME280;57495;49.922;7.966;2022-07-18T09:47:08;100619.81;;;30.63;21.15
70133;BME280;57495;49.922;7.966;2022-07-18T09:49:10;100613.56;;;31.06;21.24
70133;BME280;57495;49.922;7.966;2022-07-18T09:51:12;100610.28;;;30.81;22.56
70133;BME280;57495;49.922;7.966;2022-07-18T09:53:15;100612.06;;;30.60;22.51
70133;BME280;57495;49.922;7.966;2022-07-18T09:55:16;100616.00;;;30.70;24.07
70133;BME280;57495;49.922;7.966;2022-07-18T09:57:24;100612.94;;;30.93;23.38
70133;BME280;57495;49.922;7.966;2022-07-18T09:59:25;100608.44;;;31.62;22.67
70133;BME280;57495;49.922;7.966;2022-07-18T10:01:27;100615.03;;;32.14;21.70
70133;BME280;57495;49.922;7.966;2022-07-18T10:03:30;100611.50;;;32.44;20.88
70133;BME280;57495;49.922;7.966;2022-07-18T10:05:33;100608.09;;;32.06;20.22
70133;BME280;57495;49.922;7.966;2022-07-18T10:07:35;100617.59;;;32.56;20.76
70133;BME280;57495;49.922;7.966;2022-07-18T10:09:38;100605.47;;;32.88;20.20
70133;BME280;57495;49.922;7.966;2022-07-18T10:11:40;100611.28;;;33.23;20.23
70133;BME280;57495;49.922;7.966;2022-07-18T10:13:43;100606.03;;;32.60;19.90
70133;BME280;57495;49.922;7.966;2022-07-18T10:15:46;100605.44;;;33.04;20.52
70133;BME280;57495;49.922;7.966;2022-07-18T10:17:47;100604.06;;;32.96;19.85
70133;BME280;57495;49.922;7.966;2022-07-18T10:19:51;100600.97;;;33.49;17.87
70133;BME280;57495;49.922;7.966;2022-07-18T10:21:53;100606.28;;;33.04;20.03
70133;BME280;57495;49.922;7.966;2022-07-18T10:23:55;100610.88;;;32.11;19.59
70133;BME280;57495;49.922;7.966;2022-07-18T10:26:08;100607.38;;;32.78;17.61
70133;BME280;57495;49.922;7.966;2022-07-18T10:28:13;100603.44;;;32.27;19.52
70133;BME280;57495;49.922;7.966;2022-07-18T10:30:15;100603.41;;;32.17;18.13
70133;BME280;57495;49.922;7.966;2022-07-18T10:32:31;100605.47;;;33.24;19.27
70133;BME280;57495;49.922;7.966;2022-07-18T10:34:35;100598.53;;;32.91;18.42
70133;BME280;57495;49.922;7.966;2022-07-18T10:36:40;100598.81;;;32.64;18.42
70133;BME280;57495;49.922;7.966;2022-07-18T10:39:04;100606.03;;;31.86;18.51